Time;durP1;ratioP1;P1;durP2;ratioP2;P2;SDS_P1;SDS_P2;PMS_P1;PMS_P2;Temp;Humidity;BMP_temperature;BMP_pressure;BME280_temperature;BME280_humidity;BME280_pressure;Samples;Min_cycle;Max_cycle;Signal;HPM_P1;HPM_P2
2022/10/02 00:02:15;;;;;;;5.95;1.23;;;14.00;99.90;;;;;;5041008;28;20030;-57
2022/10/02 00:04:58;;;;;;;5.10;1.10;;;14.00;99.90;;;;;;5050508;28;20032;-57
2022/10/02 00:07:47;;;;;;;6.55;0.95;;;14.00;99.90;;;;;;5053998;28;20013;-58
2022/10/02 00:10:34;;;;;;;6.75;1.15;;;14.00;99.90;;;;;;5054600;28;20132;-57
2022/10/02 00:13:04;;;;;;;5.55;1.17;;;14.00;99.90;;;;;;5039232;28;20049;-58
2022/10/02 00:15:33;;;;;;;5.00;1.05;;;13.90;99.90;;;;;;5066162;28;20028;-58
2022/10/02 00:18:11;;;;;;;5.68;1.70;;;13.90;99.90;;;;;;5054654;28;20078;-57
2022/10/02 00:20:53;;;;;;;8.60;1.65;;;13.80;99.90;;;;;;5055256;28;20021;-58
2022/10/02 00:23:43;;;;;;;6.25;1.40;;;13.80;99.90;;;;;;5055859;28;20021;-57
2022/10/02 00:26:43;;;;;;;6.72;1.13;;;13.70;99.90;;;;;;5042726;28;20056;-58
2022/10/02 00:29:23;;;;;;;;;;;13.70;99.90;;;;;;5036755;28;20018;-57
2022/10/02 00:32:11;;;;;;;5.70;1.30;;;13.60;99.90;;;;;;5060692;28;20288;-57
2022/10/02 00:34:48;;;;;;;4.43;1.00;;;13.50;99.90;;;;;;5054074;28;20026;-57
2022/10/02 00:37:37;;;;;;;4.30;1.23;;;13.50;99.90;;;;;;5055230;28;20020;-57
2022/10/02 00:40:33;;;;;;;6.20;1.52;;;13.50;99.90;;;;;;5055271;28;20040;-56
2022/10/02 00:43:25;;;;;;;6.20;1.20;;;13.40;99.90;;;;;;5054201;28;20120;-57
2022/10/02 00:46:05;;;;;;;7.97;1.38;;;13.40;99.90;;;;;;5040571;28;20148;-57
2022/10/02 00:48:42;;;;;;;12.50;2.03;;;13.40;99.90;;;;;;5054969;28;20090;-57
2022/10/02 00:51:20;;;;;;;11.90;2.40;;;13.40;99.90;;;;;;5055224;28;20021;-57
2022/10/02 00:53:55;;;;;;;13.32;3.47;;;13.30;99.90;;;;;;5055530;28;20496;-56
2022/10/02 00:56:57;;;;;;;7.90;2.05;;;13.30;99.90;;;;;;5057559;28;20487;-57
2022/10/02 00:59:34;;;;;;;9.70;2.65;;;13.20;99.90;;;;;;5040372;28;20108;-57
2022/10/02 01:02:24;;;;;;;11.27;3.13;;;13.20;99.90;;;;;;5053618;28;20025;-57
2022/10/02 01:04:51;;;;;;;13.20;4.13;;;13.10;99.90;;;;;;5043056;28;20082;-57
2022/10/02 01:07:16;;;;;;;15.57;4.75;;;13.10;99.90;;;;;;5053467;28;20048;-57
2022/10/02 01:09:43;;;;;;;15.50;6.05;;;13.00;99.90;;;;;;5054876;28;20112;-57
2022/10/02 01:12:09;;;;;;;15.98;6.75;;;13.10;99.90;;;;;;5051223;28;20119;-57
2022/10/02 01:14:37;;;;;;;18.77;7.70;;;13.10;99.90;;;;;;5042784;28;20524;-57
2022/10/02 01:17:06;;;;;;;18.80;8.95;;;13.00;99.90;;;;;;5053059;28;20021;-60
2022/10/02 01:19:36;;;;;;;20.33;8.88;;;13.10;99.90;;;;;;5053283;28;20025;-57
2022/10/02 01:22:18;;;;;;;18.70;8.23;;;13.10;99.90;;;;;;5069679;28;20017;-56
2022/10/02 01:24:52;;;;;;;13.13;6.32;;;13.00;99.90;;;;;;5053534;28;20032;-57
2022/10/02 01:27:17;;;;;;;19.27;8.40;;;13.10;99.90;;;;;;5052893;28;20385;-57
2022/10/02 01:29:45;;;;;;;21.05;9.32;;;13.10;99.90;;;;;;5054245;28;20017;-57
2022/10/02 01:32:10;;;;;;;26.50;8.23;;;13.20;99.90;;;;;;5054520;28;20055;-57
2022/10/02 01:34:37;;;;;;;19.42;8.05;;;13.10;99.90;;;;;;5054090;28;20109;-57
2022/10/02 01:37:03;;;;;;;26.67;9.10;;;13.20;99.90;;;;;;5052706;28;20385;-57
2022/10/02 01:39:29;;;;;;;23.92;7.47;;;13.20;99.90;;;;;;5053766;28;20469;-57
2022/10/02 01:41:55;;;;;;;26.00;8.23;;;13.20;99.90;;;;;;5053230;28;20045;-56
2022/10/02 01:44:22;;;;;;;28.58;8.95;;;13.30;99.90;;;;;;5052495;28;20028;-56
2022/10/02 01:47:27;;;;;;;14.98;6.65;;;13.30;99.90;;;;;;5054199;28;20033;-57
2022/10/02 01:50:16;;;;;;;20.17;7.55;;;13.30;99.90;;;;;;5042913;28;20036;-57
2022/10/02 01:52:55;;;;;;;17.57;6.47;;;13.40;99.90;;;;;;5048778;28;20048;-55
2022/10/02 01:55:30;;;;;;;23.15;6.72;;;13.30;99.90;;;;;;5052664;28;20032;-56
2022/10/02 01:58:16;;;;;;;18.52;6.85;;;13.40;99.90;;;;;;5053143;28;20017;-57
2022/10/02 02:00:41;;;;;;;18.70;6.05;;;13.40;99.90;;;;;;5053642;28;20031;-56
2022/10/02 02:03:20;;;;;;;14.13;5.63;;;13.40;99.90;;;;;;5053871;28;20095;-57
2022/10/02 02:05:54;;;;;;;21.75;6.22;;;13.40;99.90;;;;;;5051140;28;20017;-57
2022/10/02 02:08:32;;;;;;;16.50;5.90;;;13.40;99.90;;;;;;5055974;28;20103;-56
2022/10/02 02:11:11;;;;;;;18.58;6.35;;;13.40;99.90;;;;;;5045418;28;20032;-56
2022/10/02 02:13:51;;;;;;;14.95;4.72;;;13.40;99.90;;;;;;5049252;28;20025;-57
2022/10/02 02:16:30;;;;;;;19.38;5.38;;;13.40;99.90;;;;;;5052126;28;20028;-56
2022/10/02 02:19:13;;;;;;;24.13;6.45;;;13.40;99.90;;;;;;5053303;28;20480;-56
2022/10/02 02:21:51;;;;;;;22.40;5.60;;;13.40;99.90;;;;;;5049461;28;20033;-56
2022/10/02 02:24:23;;;;;;;23.30;5.55;;;13.40;99.90;;;;;;5053537;28;20078;-57
2022/10/02 02:26:52;;;;;;;19.27;4.20;;;13.40;99.90;;;;;;5053294;28;20021;-56
2022/10/02 02:29:20;;;;;;;20.88;4.90;;;13.40;99.90;;;;;;5052353;28;20024;-56
2022/10/02 02:31:50;;;;;;;21.55;5.07;;;13.50;99.90;;;;;;5051899;28;20395;-56
2022/10/02 02:34:22;;;;;;;16.50;4.28;;;13.50;99.90;;;;;;5052203;28;20491;-57
2022/10/02 02:36:53;;;;;;;13.63;3.95;;;13.50;99.90;;;;;;5039885;28;20079;-57
2022/10/02 02:39:39;;;;;;;22.73;5.00;;;13.50;99.90;;;;;;5052031;28;20028;-57
2022/10/02 02:42:09;;;;;;;22.30;5.15;;;13.50;99.90;;;;;;5039115;28;20413;-57
2022/10/02 02:44:41;;;;;;;17.58;4.25;;;13.40;99.90;;;;;;5051506;28;20025;-57
2022/10/02 02:47:14;;;;;;;20.02;4.50;;;13.50;99.90;;;;;;5051547;28;20025;-57
2022/10/02 02:50:02;;;;;;;17.67;4.13;;;13.50;99.90;;;;;;5068283;28;20027;-57
2022/10/02 02:52:37;;;;;;;20.65;3.40;;;13.50;99.90;;;;;;5053188;28;20025;-57
2022/10/02 02:55:14;;;;;;;15.65;3.33;;;13.50;99.90;;;;;;5052935;28;20029;-57
2022/10/02 02:57:55;;;;;;;18.08;4.10;;;13.50;99.90;;;;;;5051798;28;20078;-57
2022/10/02 03:00:22;;;;;;;18.55;3.65;;;13.50;99.90;;;;;;5054947;28;20078;-57
2022/10/02 03:02:49;;;;;;;14.77;3.03;;;13.50;99.90;;;;;;5051709;28;20029;-57
2022/10/02 03:05:17;;;;;;;19.52;3.95;;;13.50;99.90;;;;;;5052783;28;20021;-57
2022/10/02 03:07:55;;;;;;;11.93;2.80;;;13.50;99.90;;;;;;5050892;28;20024;-57
2022/10/02 03:10:30;;;;;;;13.93;3.25;;;13.50;99.90;;;;;;5052848;28;20487;-57
2022/10/02 03:13:09;;;;;;;16.50;3.00;;;13.50;99.90;;;;;;5050926;28;20060;-57
2022/10/02 03:15:40;;;;;;;17.02;3.92;;;13.50;99.90;;;;;;5052240;28;20028;-57
2022/10/02 03:18:28;;;;;;;11.80;2.92;;;13.50;99.90;;;;;;5051896;28;20031;-57
2022/10/02 03:21:24;;;;;;;10.93;2.92;;;13.50;99.90;;;;;;5051001;28;20033;-57
2022/10/02 03:24:05;;;;;;;14.50;3.72;;;13.50;99.90;;;;;;5005117;28;20036;-57
2022/10/02 03:26:53;;;;;;;19.73;4.00;;;13.50;99.90;;;;;;5050937;28;20419;-57
2022/10/02 03:29:35;;;;;;;21.25;4.03;;;13.60;99.90;;;;;;5052199;28;20021;-57
2022/10/02 03:32:03;;;;;;;20.17;4.10;;;13.60;99.90;;;;;;5052009;28;20028;-57
2022/10/02 03:34:31;;;;;;;16.73;3.47;;;13.60;99.90;;;;;;5044689;28;20028;-57
2022/10/02 03:36:57;;;;;;;17.80;4.00;;;13.60;99.90;;;;;;5032223;28;20033;-57
2022/10/02 03:39:23;;;;;;;16.77;4.65;;;13.60;99.90;;;;;;5044114;28;20025;-57
2022/10/02 03:41:48;;;;;;;20.92;4.70;;;13.60;99.90;;;;;;5051637;28;20041;-57
2022/10/02 03:44:14;;;;;;;22.58;3.92;;;13.60;99.90;;;;;;5052390;28;20481;-57
2022/10/02 03:46:39;;;;;;;24.80;5.00;;;13.60;99.90;;;;;;5050201;28;20056;-57
2022/10/02 03:49:05;;;;;;;26.25;5.10;;;13.60;99.90;;;;;;5052124;28;20013;-57
2022/10/02 03:51:30;;;;;;;20.17;4.22;;;13.60;99.90;;;;;;5050667;28;20125;-56
2022/10/02 03:53:56;;;;;;;24.30;4.63;;;13.60;99.90;;;;;;5052205;28;20505;-56
2022/10/02 03:56:33;;;;;;;19.23;4.90;;;13.60;99.90;;;;;;5050527;28;20033;-56
2022/10/02 03:59:01;;;;;;;23.33;4.22;;;13.60;99.90;;;;;;5051821;28;20025;-57
2022/10/02 04:01:34;;;;;;;21.17;5.38;;;13.70;99.90;;;;;;5049902;28;20032;-57
2022/10/02 04:04:22;;;;;;;21.70;4.78;;;13.60;99.90;;;;;;5052107;28;20500;-57
2022/10/02 04:06:53;;;;;;;18.88;3.72;;;13.60;99.90;;;;;;5049505;28;20033;-57
2022/10/02 04:09:28;;;;;;;22.30;4.95;;;13.60;99.90;;;;;;5049667;28;20024;-57
2022/10/02 04:12:15;;;;;;;14.15;3.42;;;13.60;99.90;;;;;;5041151;28;20087;-56
2022/10/02 04:14:46;;;;;;;15.00;3.38;;;13.70;99.90;;;;;;5051608;28;20025;-57
2022/10/02 04:17:19;;;;;;;24.30;4.10;;;13.60;99.90;;;;;;5051843;28;20025;-56
2022/10/02 04:19:51;;;;;;;18.35;4.03;;;13.70;99.90;;;;;;5050017;28;20112;-57
2022/10/02 04:22:35;;;;;;;15.77;3.90;;;13.70;99.90;;;;;;5049160;28;20028;-56
2022/10/02 04:25:25;;;;;;;14.38;3.58;;;13.70;99.90;;;;;;5042785;28;20025;-56
2022/10/02 04:27:58;;;;;;;21.05;3.75;;;13.70;99.90;;;;;;5030667;28;20026;-57
2022/10/02 04:30:24;;;;;;;14.63;2.95;;;13.70;99.90;;;;;;5046833;28;20104;-57
2022/10/02 04:32:50;;;;;;;17.05;3.95;;;13.60;99.90;;;;;;5037554;28;20029;-57
2022/10/02 04:35:31;;;;;;;16.48;3.42;;;13.70;99.90;;;;;;5049204;28;20087;-57
2022/10/02 04:38:19;;;;;;;13.68;3.10;;;13.70;99.90;;;;;;5051543;28;20021;-57
2022/10/02 04:41:17;;;;;;;9.10;2.47;;;13.70;99.90;;;;;;5046843;28;20057;-55
2022/10/02 04:44:08;;;;;;;13.18;3.03;;;13.70;99.90;;;;;;5013941;28;20041;-57
2022/10/02 04:46:58;;;;;;;10.07;2.40;;;13.70;99.90;;;;;;5043397;28;20079;-56
2022/10/02 04:49:23;;;;;;;13.25;3.20;;;13.70;99.90;;;;;;5051948;28;20051;-57
2022/10/02 04:52:37;;;;;;;17.75;3.15;;;13.70;99.90;;;;;;5049315;28;20071;-56
2022/10/02 04:55:31;;;;;;;14.15;2.35;;;13.70;99.90;;;;;;5047919;28;20044;-57
2022/10/02 04:58:21;;;;;;;14.85;2.88;;;13.60;99.90;;;;;;5054029;28;20031;-57
2022/10/02 05:01:14;;;;;;;13.32;2.50;;;13.70;99.90;;;;;;5055110;28;20029;-57
2022/10/02 05:03:58;;;;;;;9.82;2.13;;;13.60;99.90;;;;;;5054304;28;20528;-56
2022/10/02 05:07:03;;;;;;;16.35;3.30;;;13.60;99.90;;;;;;5054345;28;20123;-57
2022/10/02 05:09:57;;;;;;;10.30;2.33;;;13.60;99.90;;;;;;5054374;28;20459;-57
2022/10/02 05:12:37;;;;;;;11.65;2.35;;;13.60;99.90;;;;;;5054985;28;20017;-56
2022/10/02 05:15:21;;;;;;;14.57;2.58;;;13.60;99.90;;;;;;5053179;28;20033;-56
2022/10/02 05:18:25;;;;;;;13.63;3.28;;;13.60;99.90;;;;;;5050678;28;20500;-57
2022/10/02 05:21:00;;;;;;;11.30;2.80;;;13.60;99.90;;;;;;5042035;28;20345;-56
2022/10/02 05:23:34;;;;;;;13.32;3.45;;;13.60;99.90;;;;;;5052600;28;20500;-57
2022/10/02 05:26:24;;;;;;;13.43;2.90;;;13.50;99.90;;;;;;5044166;28;20022;-56
2022/10/02 05:28:56;;;;;;;;;;;13.60;99.90;;;;;;5053784;28;20436;-56
2022/10/02 05:31:38;;;;;;;13.35;3.17;;;13.50;99.90;;;;;;5053221;28;19909;-54
2022/10/02 05:34:34;;;;;;;9.48;2.17;;;13.50;99.90;;;;;;5053715;28;20025;-56
2022/10/02 05:37:26;;;;;;;9.90;2.25;;;13.50;99.90;;;;;;5041160;28;20102;-56
2022/10/02 05:40:14;;;;;;;14.05;2.20;;;13.50;99.90;;;;;;5020107;28;20107;-56
2022/10/02 05:42:53;;;;;;;12.18;2.53;;;13.50;99.90;;;;;;5041636;28;20060;-56
2022/10/02 05:45:27;;;;;;;6.85;2.45;;;13.50;99.90;;;;;;5041537;28;20024;-57
2022/10/02 05:47:58;;;;;;;9.88;2.65;;;13.50;99.90;;;;;;5054310;28;20041;-57
2022/10/02 05:50:33;;;;;;;6.68;2.08;;;13.50;99.90;;;;;;5049568;28;20018;-55
2022/10/02 05:53:03;;;;;;;7.80;1.52;;;13.50;99.90;;;;;;5046409;28;20021;-56
2022/10/02 05:56:01;;;;;;;5.88;1.40;;;13.50;99.90;;;;;;5049380;28;20017;-57
2022/10/02 05:58:33;;;;;;;7.55;1.58;;;13.60;99.90;;;;;;5028653;28;20480;-57
2022/10/02 06:01:05;;;;;;;7.63;2.15;;;13.50;99.90;;;;;;5044710;28;20037;-57
2022/10/02 06:03:47;;;;;;;8.27;2.58;;;13.50;99.90;;;;;;5052745;28;20013;-57
2022/10/02 06:06:38;;;;;;;9.25;1.75;;;13.50;99.90;;;;;;5053699;28;20025;-57
2022/10/02 06:09:34;;;;;;;7.05;2.05;;;13.50;99.90;;;;;;5053867;28;20108;-57
2022/10/02 06:12:10;;;;;;;8.02;2.10;;;13.50;99.90;;;;;;5042811;28;20029;-56
2022/10/02 06:14:54;;;;;;;9.27;1.90;;;13.50;99.90;;;;;;5053545;28;20033;-57
2022/10/02 06:17:28;;;;;;;9.52;2.00;;;13.50;99.90;;;;;;5052250;28;20029;-57
2022/10/02 06:20:28;;;;;;;7.20;1.77;;;13.60;99.90;;;;;;5044541;28;20021;-57
2022/10/02 06:22:57;;;;;;;10.55;2.22;;;13.60;99.90;;;;;;5052072;28;20033;-57
2022/10/02 06:25:29;;;;;;;8.30;1.50;;;13.60;99.90;;;;;;5053555;28;20118;-56
2022/10/02 06:28:08;;;;;;;6.55;1.77;;;13.60;99.90;;;;;;5041219;28;20194;-56
2022/10/02 06:30:38;;;;;;;7.05;1.70;;;13.70;99.90;;;;;;5053026;28;20029;-57
2022/10/02 06:33:21;;;;;;;7.43;1.80;;;13.70;99.90;;;;;;5053652;28;20498;-57
2022/10/02 06:35:54;;;;;;;7.30;1.60;;;13.70;99.90;;;;;;5051798;28;20028;-57
2022/10/02 06:38:50;;;;;;;9.82;2.22;;;13.80;99.90;;;;;;5051525;28;20542;-57
2022/10/02 06:41:30;;;;;;;12.40;2.33;;;13.80;99.90;;;;;;5039748;28;20049;-57
2022/10/02 06:43:56;;;;;;;9.95;2.15;;;13.80;99.90;;;;;;5052080;28;20025;-57
2022/10/02 06:46:43;;;;;;;9.95;2.10;;;13.80;99.90;;;;;;5051647;28;20107;-57
2022/10/02 06:49:56;;;;;;;11.63;2.10;;;13.80;99.90;;;;;;5038099;28;20017;-57
2022/10/02 06:52:45;;;;;;;5.88;1.73;;;13.90;99.90;;;;;;5027461;28;20025;-57
2022/10/02 06:55:48;;;;;;;8.90;2.08;;;13.90;99.90;;;;;;5053246;28;20035;-57
2022/10/02 06:58:39;;;;;;;12.35;1.90;;;13.90;99.90;;;;;;5056495;28;20115;-57
2022/10/02 07:01:07;;;;;;;10.88;2.10;;;13.90;99.90;;;;;;5052590;28;20474;-56
2022/10/02 07:04:12;;;;;;;6.63;1.60;;;14.00;99.90;;;;;;5052988;28;20029;-57
2022/10/02 07:06:49;;;;;;;8.82;1.95;;;14.00;99.90;;;;;;5031929;28;20448;-57
2022/10/02 07:10:02;;;;;;;10.98;2.20;;;14.10;99.90;;;;;;5052076;28;20041;-56
2022/10/02 07:13:06;;;;;;;8.90;1.77;;;14.10;99.90;;;;;;5008684;28;20034;-57
2022/10/02 07:15:44;;;;;;;11.50;2.67;;;14.20;99.90;;;;;;5050050;28;20047;-57
2022/10/02 07:18:34;;;;;;;11.52;2.10;;;14.20;99.90;;;;;;5047983;28;20032;-57
2022/10/02 07:21:34;;;;;;;13.75;2.55;;;14.30;99.90;;;;;;5042756;28;20133;-57
2022/10/02 07:24:19;;;;;;;13.73;2.20;;;14.40;99.90;;;;;;5039839;28;20047;-56
2022/10/02 07:26:59;;;;;;;15.00;3.45;;;14.40;99.90;;;;;;5050832;28;20055;-57
2022/10/02 07:29:56;;;;;;;14.60;2.70;;;14.40;99.90;;;;;;5059214;28;20104;-57
2022/10/02 07:32:35;;;;;;;9.65;2.28;;;14.50;99.90;;;;;;5052272;28;20048;-56
2022/10/02 07:35:38;;;;;;;9.75;2.80;;;14.60;99.90;;;;;;5036759;28;20029;-57
2022/10/02 07:38:23;;;;;;;10.65;2.28;;;14.60;99.90;;;;;;5046485;28;20021;-57
2022/10/02 07:41:24;;;;;;;12.43;2.22;;;14.70;99.90;;;;;;5052177;28;20032;-57
2022/10/02 07:44:17;;;;;;;14.52;2.05;;;14.80;99.90;;;;;;5039731;28;20049;-57
2022/10/02 07:47:09;;;;;;;15.23;2.63;;;14.90;99.90;;;;;;5051388;28;20028;-57
2022/10/02 07:49:54;;;;;;;10.68;2.20;;;14.90;99.90;;;;;;5056970;28;20032;-56
2022/10/02 07:52:25;;;;;;;9.13;2.13;;;15.00;99.90;;;;;;5039122;28;20096;-57
2022/10/02 07:55:07;;;;;;;9.77;2.17;;;15.00;99.90;;;;;;5052025;28;20032;-57
2022/10/02 07:58:08;;;;;;;17.40;2.72;;;15.10;99.90;;;;;;5050832;28;20017;-57
2022/10/02 08:00:44;;;;;;;8.77;1.90;;;15.20;99.90;;;;;;5050983;28;20021;-57
2022/10/02 08:03:23;;;;;;;7.93;1.85;;;15.20;99.90;;;;;;5051817;28;20074;-57
2022/10/02 08:05:52;;;;;;;9.13;1.70;;;15.30;99.90;;;;;;5040388;28;20028;-57
2022/10/02 08:08:49;;;;;;;12.13;2.10;;;15.30;99.90;;;;;;5050796;28;20029;-57
2022/10/02 08:11:21;;;;;;;10.90;2.28;;;15.40;99.90;;;;;;5050324;28;20145;-57
2022/10/02 08:14:04;;;;;;;9.73;1.95;;;15.50;99.90;;;;;;5052098;28;20507;-56
2022/10/02 08:16:37;;;;;;;12.77;2.58;;;15.50;99.90;;;;;;5047003;28;20493;-56
2022/10/02 08:19:16;;;;;;;9.07;1.88;;;15.60;99.90;;;;;;5046222;28;20032;-55
2022/10/02 08:22:07;;;;;;;10.37;1.97;;;15.70;99.90;;;;;;5051742;28;20036;-57
2022/10/02 08:24:44;;;;;;;12.77;2.20;;;15.80;99.90;;;;;;5066435;28;20071;-57
2022/10/02 08:27:19;;;;;;;10.18;2.13;;;15.80;99.90;;;;;;5060431;28;20040;-56
2022/10/02 08:29:58;;;;;;;8.48;1.50;;;16.00;99.90;;;;;;5054542;28;20021;-57
2022/10/02 08:32:33;;;;;;;13.32;2.55;;;16.10;99.90;;;;;;5043800;28;20029;-56
2022/10/02 08:34:59;;;;;;;9.90;1.70;;;16.10;99.90;;;;;;5053793;28;20040;-57
2022/10/02 08:38:04;;;;;;;14.05;2.40;;;16.20;99.90;;;;;;5055409;28;20047;-57
2022/10/02 08:40:49;;;;;;;13.95;2.75;;;16.20;99.90;;;;;;5042693;28;20033;-57
2022/10/02 08:43:26;;;;;;;12.45;2.03;;;16.30;99.90;;;;;;5054055;28;20033;-56
2022/10/02 08:46:15;;;;;;;15.43;4.25;;;16.40;99.90;;;;;;5045821;28;20017;-57
2022/10/02 08:48:57;;;;;;;16.50;2.73;;;16.40;99.90;;;;;;5051756;28;20603;-57
2022/10/02 08:51:49;;;;;;;8.88;1.90;;;16.40;99.90;;;;;;5054083;28;20116;-57
2022/10/02 08:54:57;;;;;;;8.65;1.75;;;16.50;99.90;;;;;;5043597;28;20448;-56
2022/10/02 08:57:56;;;;;;;11.38;1.52;;;16.60;99.90;;;;;;5035101;28;20033;-57
2022/10/02 09:00:35;;;;;;;13.88;2.60;;;16.70;99.90;;;;;;5053395;28;20021;-57
2022/10/02 09:03:10;;;;;;;13.90;1.80;;;16.80;99.90;;;;;;5054888;28;20025;-56
2022/10/02 09:05:54;;;;;;;9.15;1.48;;;16.80;99.90;;;;;;5050522;28;20029;-57
2022/10/02 09:08:47;;;;;;;7.97;1.50;;;16.90;99.90;;;;;;5052282;28;20028;-57
2022/10/02 09:11:45;;;;;;;7.65;1.77;;;17.00;99.90;;;;;;5054743;28;20048;-57
2022/10/02 09:14:44;;;;;;;8.00;2.15;;;17.10;99.90;;;;;;5055014;28;20028;-57
2022/10/02 09:17:33;;;;;;;9.53;1.60;;;17.20;99.90;;;;;;5054967;28;20021;-58
2022/10/02 09:20:31;;;;;;;8.15;1.58;;;17.20;99.90;;;;;;5046546;28;20111;-57
2022/10/02 09:23:27;;;;;;;11.77;1.77;;;17.30;99.90;;;;;;5054236;28;20036;-57
2022/10/02 09:26:11;;;;;;;11.75;2.20;;;17.50;99.90;;;;;;5042141;28;20040;-57
2022/10/02 09:29:18;;;;;;;11.18;2.50;;;17.50;99.90;;;;;;5040497;28;20068;-57
2022/10/02 09:32:02;;;;;;;7.30;1.75;;;17.70;99.90;;;;;;5054622;28;20496;-58
2022/10/02 09:34:47;;;;;;;8.63;1.58;;;17.80;99.90;;;;;;5043816;28;20025;-56
2022/10/02 09:37:48;;;;;;;8.95;1.73;;;18.00;99.90;;;;;;5054332;28;20103;-56
2022/10/02 09:40:41;;;;;;;9.32;1.50;;;18.10;99.90;;;;;;5041158;28;20112;-57
2022/10/02 09:43:42;;;;;;;10.60;1.85;;;18.30;99.90;;;;;;5052816;28;20052;-57
2022/10/02 09:46:20;;;;;;;9.05;1.95;;;18.30;99.90;;;;;;5053815;28;20025;-57
2022/10/02 09:49:18;;;;;;;8.00;1.92;;;18.40;99.90;;;;;;5051559;28;20074;-58
2022/10/02 09:52:06;;;;;;;4.57;1.20;;;18.60;99.80;;;;;;5054021;28;20566;-57
2022/10/02 09:55:01;;;;;;;8.77;1.33;;;18.70;99.50;;;;;;5052750;28;20029;-57
2022/10/02 09:57:37;;;;;;;5.65;1.30;;;18.70;99.00;;;;;;5054083;28;20009;-57
2022/10/02 10:00:23;;;;;;;8.48;1.27;;;18.80;98.90;;;;;;5053717;28;20013;-57
2022/10/02 10:03:35;;;;;;;7.72;1.27;;;18.90;98.60;;;;;;5053733;28;20028;-57
2022/10/02 10:06:31;;;;;;;8.75;1.50;;;19.10;98.10;;;;;;5034674;28;20112;-57
2022/10/02 10:09:18;;;;;;;9.15;1.20;;;19.20;97.50;;;;;;5052363;28;20067;-57
2022/10/02 10:11:55;;;;;;;4.88;1.23;;;19.50;97.50;;;;;;5041277;28;20039;-58
2022/10/02 10:14:58;;;;;;;6.25;1.65;;;19.80;97.20;;;;;;5053453;28;20028;-58
2022/10/02 10:17:42;;;;;;;7.20;1.30;;;20.20;96.80;;;;;;5052293;28;20445;-57
2022/10/02 10:20:08;;;;;;;6.25;1.40;;;20.50;96.40;;;;;;5052459;28;20094;-57
2022/10/02 10:22:48;;;;;;;9.18;1.55;;;21.00;96.10;;;;;;5052156;28;20480;-57
2022/10/02 10:25:43;;;;;;;11.80;1.98;;;22.00;94.80;;;;;;5053374;28;20032;-57
2022/10/02 10:28:22;;;;;;;6.70;1.65;;;22.60;91.70;;;;;;5043554;28;20048;-57
2022/10/02 10:31:50;;;;;;;7.18;1.33;;;23.10;90.00;;;;;;5053448;28;20024;-58
2022/10/02 10:34:34;;;;;;;5.82;1.40;;;23.20;89.30;;;;;;5053631;28;20029;-58
2022/10/02 10:40:31;;;;;;;6.18;1.77;;;24.40;80.20;;;;;;5053028;28;20059;-57
2022/10/02 10:43:21;;;;;;;7.18;1.45;;;23.70;80.70;;;;;;5052985;28;20124;-57
2022/10/02 10:46:05;;;;;;;7.35;2.08;;;23.00;81.20;;;;;;5053172;28;20024;-58
2022/10/02 10:48:42;;;;;;;7.75;1.35;;;22.50;80.60;;;;;;5046881;28;20021;-57
2022/10/02 10:51:41;;;;;;;8.40;1.70;;;22.10;82.30;;;;;;5051054;28;20055;-58
2022/10/02 10:54:24;;;;;;;;;;;21.80;82.50;;;;;;5041566;28;20017;-57
2022/10/02 10:57:03;;;;;;;6.88;1.38;;;21.50;82.30;;;;;;5051540;28;19966;-57
2022/10/02 11:00:06;;;;;;;8.25;1.27;;;21.50;82.80;;;;;;5051711;28;20120;-58
2022/10/02 11:03:09;;;;;;;6.00;1.20;;;22.50;80.10;;;;;;5052709;28;20128;-58
2022/10/02 11:05:50;;;;;;;4.90;1.02;;;22.40;79.10;;;;;;5042897;28;20016;-57
2022/10/02 11:08:21;;;;;;;7.30;1.60;;;22.00;79.50;;;;;;5052681;28;20024;-57
2022/10/02 11:11:06;;;;;;;8.15;1.48;;;22.20;80.10;;;;;;5052793;28;20389;-57
2022/10/02 11:13:53;;;;;;;7.43;1.35;;;22.30;79.70;;;;;;5042325;28;20012;-58
2022/10/02 11:16:36;;;;;;;5.25;1.15;;;23.00;78.30;;;;;;5051136;28;20104;-57
2022/10/02 11:19:08;;;;;;;5.80;1.50;;;23.10;77.20;;;;;;5050374;28;20388;-58
2022/10/02 11:21:55;;;;;;;11.02;1.98;;;23.20;77.20;;;;;;5041020;28;20052;-57
2022/10/02 11:24:32;;;;;;;7.78;1.42;;;23.20;76.70;;;;;;5048819;28;20013;-58
2022/10/02 11:27:25;;;;;;;4.78;1.23;;;23.10;76.70;;;;;;5045737;28;20032;-58
2022/10/02 11:30:19;;;;;;;6.30;1.35;;;23.00;76.50;;;;;;5043108;28;20017;-58
2022/10/02 11:33:16;;;;;;;4.22;1.15;;;22.80;76.90;;;;;;5063604;28;20027;-58
2022/10/02 11:36:25;;;;;;;6.60;1.80;;;22.80;76.90;;;;;;5049957;28;20400;-57
2022/10/02 11:39:13;;;;;;;5.15;1.23;;;22.80;76.40;;;;;;5050674;28;20028;-58
2022/10/02 11:42:05;;;;;;;5.72;1.00;;;22.60;75.70;;;;;;5051483;28;20037;-57
2022/10/02 11:44:50;;;;;;;6.13;1.40;;;22.40;76.20;;;;;;5052218;28;20040;-57
2022/10/02 11:47:30;;;;;;;5.28;1.40;;;22.20;76.60;;;;;;5040498;28;20017;-57
2022/10/02 11:50:25;;;;;;;6.22;1.20;;;22.80;77.00;;;;;;5064308;28;20053;-58
2022/10/02 11:53:06;;;;;;;3.88;0.90;;;24.80;75.60;;;;;;5063721;28;20017;-57
2022/10/02 11:55:56;;;;;;;5.55;0.85;;;27.10;71.00;;;;;;5051351;28;20029;-58
2022/10/02 11:58:46;;;;;;;8.15;1.10;;;28.10;67.00;;;;;;5051887;28;20032;-58
2022/10/02 12:01:17;;;;;;;7.03;1.08;;;27.60;65.10;;;;;;5047289;28;20025;-58
2022/10/02 12:04:05;;;;;;;2.92;1.02;;;26.90;65.60;;;;;;5048208;28;20021;-58
2022/10/02 12:06:59;;;;;;;7.40;1.35;;;26.70;65.80;;;;;;5061440;28;20075;-57
2022/10/02 12:09:53;;;;;;;4.50;0.90;;;27.00;64.70;;;;;;5054307;28;20017;-58
2022/10/02 12:12:42;;;;;;;3.60;1.20;;;27.40;64.20;;;;;;5055750;28;20016;-58
2022/10/02 12:15:23;;;;;;;5.07;0.98;;;28.00;63.00;;;;;;5051698;28;20021;-58
2022/10/02 12:18:00;;;;;;;5.45;1.10;;;28.30;60.20;;;;;;5045085;28;20139;-58
2022/10/02 12:27:08;;;;;;;4.95;1.10;;;30.00;57.10;;;;;;5049612;28;20039;-58
2022/10/02 12:30:00;;;;;;;4.32;0.98;;;30.90;55.70;;;;;;5049006;28;20048;-58
2022/10/02 12:32:37;;;;;;;3.80;0.82;;;31.90;54.40;;;;;;5045667;28;20020;-58
2022/10/02 12:35:26;;;;;;;4.40;1.30;;;33.30;52.10;;;;;;5050233;28;20060;-58
2022/10/02 12:38:29;;;;;;;4.75;0.93;;;34.10;48.90;;;;;;5048152;28;20025;-58
2022/10/02 12:41:34;;;;;;;2.72;1.00;;;34.20;48.10;;;;;;5054267;28;20051;-58
2022/10/02 12:44:08;;;;;;;3.45;1.05;;;35.10;47.50;;;;;;5013560;28;20028;-58
2022/10/02 12:47:07;;;;;;;4.43;1.05;;;36.00;44.80;;;;;;5013512;28;20044;-58
2022/10/02 12:49:51;;;;;;;4.32;0.90;;;36.70;43.50;;;;;;5035961;28;20033;-58
2022/10/02 12:52:45;;;;;;;2.45;0.70;;;37.20;42.60;;;;;;5054010;28;20071;-58
2022/10/02 12:55:51;;;;;;;3.05;1.08;;;36.40;42.30;;;;;;5055106;28;20013;-58
2022/10/02 12:58:36;;;;;;;3.97;0.93;;;36.10;42.30;;;;;;5053122;28;20432;-58
2022/10/02 13:01:13;;;;;;;3.88;1.00;;;35.40;42.10;;;;;;5053867;28;20053;-58
2022/10/02 13:04:16;;;;;;;3.03;1.17;;;35.00;43.50;;;;;;5070050;28;20385;-58
2022/10/02 13:06:56;;;;;;;3.03;0.80;;;35.80;42.50;;;;;;5054611;28;20024;-58
2022/10/02 13:09:37;;;;;;;2.65;1.10;;;36.20;41.70;;;;;;5054394;28;20516;-58
2022/10/02 13:12:22;;;;;;;4.32;1.30;;;35.40;41.50;;;;;;5045171;28;20044;-58
2022/10/02 13:15:08;;;;;;;4.63;1.20;;;35.00;42.40;;;;;;5051823;28;20024;-58
2022/10/02 13:17:50;;;;;;;2.88;0.95;;;34.20;43.20;;;;;;5053428;28;20052;-58
2022/10/02 13:20:41;;;;;;;3.25;1.17;;;34.30;43.90;;;;;;5049649;28;20033;-58
2022/10/02 13:23:13;;;;;;;6.63;1.27;;;34.00;43.70;;;;;;5053696;28;20021;-58
2022/10/02 13:26:07;;;;;;;3.25;0.93;;;33.00;44.30;;;;;;5054748;28;20024;-58
2022/10/02 13:29:02;;;;;;;5.03;1.20;;;32.10;45.30;;;;;;5047482;28;20036;-58
2022/10/02 13:31:36;;;;;;;4.90;1.13;;;31.10;46.50;;;;;;5050271;28;20044;-58
2022/10/02 13:34:05;;;;;;;3.97;0.98;;;30.20;47.40;;;;;;5056030;28;20040;-58
2022/10/02 13:37:02;;;;;;;5.15;1.20;;;29.70;48.10;;;;;;5054198;28;20024;-58
2022/10/02 13:39:39;;;;;;;4.03;1.00;;;29.20;48.70;;;;;;5043477;28;20468;-58
2022/10/02 13:42:07;;;;;;;2.90;0.93;;;28.70;49.30;;;;;;5050022;28;20079;-58
2022/10/02 13:44:57;;;;;;;2.92;1.00;;;28.30;50.10;;;;;;5054376;28;20546;-58
2022/10/02 13:47:39;;;;;;;4.65;1.20;;;28.80;50.40;;;;;;5043782;28;20439;-58
2022/10/02 13:50:33;;;;;;;5.22;1.50;;;30.30;49.20;;;;;;5053902;28;20025;-58
2022/10/02 13:53:01;;;;;;;3.72;1.08;;;31.40;47.40;;;;;;5054292;28;20032;-58
2022/10/02 13:55:50;;;;;;;3.92;1.00;;;32.40;45.40;;;;;;5052891;28;20021;-58
2022/10/02 13:58:18;;;;;;;4.35;1.20;;;33.00;44.80;;;;;;5054010;28;20112;-58
2022/10/02 14:01:01;;;;;;;2.92;0.95;;;33.50;43.20;;;;;;5052639;28;20029;-58
2022/10/02 14:03:30;;;;;;;5.50;1.08;;;33.70;42.40;;;;;;5068887;28;20025;-58
2022/10/02 14:06:20;;;;;;;4.78;0.80;;;33.90;41.50;;;;;;5059339;28;20143;-58
2022/10/02 14:08:56;;;;;;;4.68;1.05;;;34.00;41.20;;;;;;5044913;28;20393;-58
2022/10/02 14:11:46;;;;;;;2.90;0.95;;;34.10;41.20;;;;;;5051471;28;20028;-58
2022/10/02 14:14:23;;;;;;;4.20;0.80;;;34.20;41.40;;;;;;5051991;28;20492;-58